Mount Storm, West Virginia
Current Conditions -  °F | °C
As of 5:35 PM on Thursday 20 Nov 2014 (Local Time) from KW99 Reporting Station
Clear Clear  
Wind Chill: 30°   Ceiling: Unl
Heat Index: 38°   Visibility: 10mi
Dew Point: 11°   Wind: 14mph
Humidity: 32%   Direction: 260°W
Pressure: 30"   Gusts: 22mph
Location:  39.28°N, 79.24°W
Report Text: KW99 202235Z AUTO 26012G19KT 10SM CLR 04/M12 A3000 RMK AO2 T00361119
Loading
Personal Weather Stations






























Interactive Weather Map New forecast layout! Learn more

10-Day Weather Forecast

Advertisements
Track Severe Weather on mobile